createdAt,value
2018-05-29T00:00:03.507Z,0.00
2018-05-29T00:01:03.500Z,0.00
2018-05-29T00:02:03.494Z,0.00
2018-05-29T00:03:03.476Z,0.00
2018-05-29T00:04:03.467Z,0.00
2018-05-29T00:05:03.608Z,0.00
2018-05-29T00:06:03.441Z,0.00
2018-05-29T00:07:03.430Z,0.00
2018-05-29T00:08:03.437Z,0.00
2018-05-29T00:09:03.411Z,0.00
2018-05-29T00:10:03.399Z,0.00
2018-05-29T00:11:03.388Z,0.00
2018-05-29T00:12:03.377Z,0.00
2018-05-29T00:13:03.369Z,0.00
2018-05-29T00:14:03.365Z,0.00
2018-05-29T00:15:03.349Z,0.00
2018-05-29T00:16:03.338Z,0.00
2018-05-29T00:17:03.325Z,0.00
2018-05-29T00:18:03.319Z,0.00
2018-05-29T00:19:03.302Z,0.00
2018-05-29T00:20:03.291Z,0.00
2018-05-29T00:21:03.280Z,0.00
2018-05-29T00:22:03.269Z,0.00
2018-05-29T00:23:03.266Z,0.00
2018-05-29T00:24:03.250Z,0.00
2018-05-29T00:25:03.242Z,0.00
2018-05-29T00:26:03.234Z,0.00
2018-05-29T00:27:03.218Z,0.00
2018-05-29T00:28:03.208Z,0.00
2018-05-29T00:29:03.304Z,0.00
2018-05-29T00:30:03.199Z,0.00
2018-05-29T00:31:03.175Z,0.00
2018-05-29T00:32:03.172Z,0.00
2018-05-29T00:33:03.159Z,0.00
2018-05-29T00:34:03.145Z,0.00
2018-05-29T00:35:03.136Z,0.00
2018-05-29T00:36:03.125Z,0.00
2018-05-29T00:37:03.117Z,0.00
2018-05-29T00:38:03.099Z,0.00
2018-05-29T00:39:03.098Z,0.00
2018-05-29T00:40:03.084Z,0.00
2018-05-29T00:41:03.065Z,0.00
2018-05-29T00:42:03.064Z,0.00
2018-05-29T00:43:03.048Z,0.00
2018-05-29T00:44:03.040Z,0.00
2018-05-29T00:45:03.081Z,0.00
2018-05-29T00:46:03.017Z,0.00
2018-05-29T00:47:03.009Z,0.00
2018-05-29T00:48:02.991Z,0.00
2018-05-29T00:49:02.989Z,0.00
2018-05-29T00:50:02.970Z,0.00
2018-05-29T00:51:02.967Z,0.00
2018-05-29T00:52:02.950Z,0.00
2018-05-29T00:53:02.942Z,0.00
2018-05-29T00:54:02.930Z,0.00
2018-05-29T00:55:02.916Z,0.00
2018-05-29T00:56:02.909Z,0.00
2018-05-29T00:57:02.900Z,0.00
2018-05-29T00:58:02.890Z,0.00
2018-05-29T00:59:02.875Z,0.00
2018-05-29T01:00:02.866Z,0.00
2018-05-29T01:01:02.853Z,0.00
2018-05-29T01:02:02.843Z,0.00
2018-05-29T01:03:02.834Z,0.00
2018-05-29T01:04:02.818Z,0.00
2018-05-29T01:05:02.811Z,0.00
2018-05-29T01:06:02.800Z,0.00
2018-05-29T01:07:02.791Z,0.00
2018-05-29T01:08:02.780Z,0.00
2018-05-29T01:09:02.771Z,0.00
2018-05-29T01:10:02.757Z,0.00
2018-05-29T01:11:02.749Z,0.00
2018-05-29T01:12:02.740Z,0.00
2018-05-29T01:13:02.725Z,0.00
2018-05-29T01:14:02.716Z,0.00
2018-05-29T01:15:02.708Z,0.00
2018-05-29T01:16:02.694Z,0.00
2018-05-29T01:17:02.681Z,0.00
2018-05-29T01:18:02.671Z,0.00
2018-05-29T01:19:02.670Z,0.00
2018-05-29T01:20:02.651Z,0.00
2018-05-29T01:21:02.638Z,0.00
2018-05-29T01:22:02.733Z,0.00
2018-05-29T01:23:02.625Z,0.00
2018-05-29T01:24:02.609Z,0.00
2018-05-29T01:25:02.595Z,0.00
2018-05-29T01:26:02.601Z,0.00
2018-05-29T01:27:02.574Z,0.00
2018-05-29T01:28:02.567Z,0.00
2018-05-29T01:29:02.552Z,0.00
2018-05-29T01:30:02.541Z,0.00
2018-05-29T01:31:02.537Z,0.00
2018-05-29T01:32:02.530Z,0.00
2018-05-29T01:33:02.508Z,0.00
2018-05-29T01:34:02.500Z,0.00
2018-05-29T01:35:02.497Z,0.00
2018-05-29T01:36:02.475Z,0.00
2018-05-29T01:37:02.467Z,0.00
2018-05-29T01:38:02.546Z,0.00
2018-05-29T01:39:02.444Z,0.00
2018-05-29T01:40:02.433Z,0.00
2018-05-29T01:41:02.421Z,0.00
2018-05-29T01:42:02.409Z,0.00
2018-05-29T01:43:02.404Z,0.00
2018-05-29T01:44:02.394Z,0.00
2018-05-29T01:45:02.378Z,0.00
2018-05-29T01:46:02.370Z,0.00
2018-05-29T01:47:02.361Z,0.00
2018-05-29T01:48:02.346Z,0.00
2018-05-29T01:49:02.335Z,0.00
2018-05-29T01:50:02.327Z,0.00
2018-05-29T01:51:02.319Z,0.00
2018-05-29T01:52:02.300Z,0.00
2018-05-29T01:53:02.291Z,0.00
2018-05-29T01:54:02.379Z,0.00
2018-05-29T01:55:02.269Z,0.00
2018-05-29T01:56:02.256Z,0.00
2018-05-29T01:57:02.254Z,0.00
2018-05-29T01:58:02.238Z,0.00
2018-05-29T01:59:02.226Z,0.00
2018-05-29T02:00:02.224Z,0.00
2018-05-29T02:01:02.203Z,0.00
2018-05-29T02:02:02.191Z,0.00
2018-05-29T02:03:02.193Z,0.00
2018-05-29T02:04:02.172Z,0.00
2018-05-29T02:05:02.157Z,0.00
2018-05-29T02:06:02.151Z,0.00
2018-05-29T02:07:02.145Z,0.00
2018-05-29T02:08:02.126Z,0.00
2018-05-29T02:09:02.116Z,0.00
2018-05-29T02:10:02.109Z,0.00
2018-05-29T02:11:02.093Z,0.00
2018-05-29T02:12:02.079Z,0.00
2018-05-29T02:13:02.071Z,0.00
2018-05-29T02:14:02.065Z,0.00
2018-05-29T02:15:02.064Z,0.00
2018-05-29T02:16:02.038Z,0.00
2018-05-29T02:17:02.023Z,0.00
2018-05-29T02:18:02.025Z,0.00
2018-05-29T02:19:02.001Z,0.00
2018-05-29T02:20:01.992Z,0.00
2018-05-29T02:21:01.978Z,0.00
2018-05-29T02:22:01.970Z,0.00
2018-05-29T02:23:01.961Z,0.00
2018-05-29T02:24:01.943Z,0.00
2018-05-29T02:25:01.938Z,0.00
2018-05-29T02:26:01.928Z,0.00
2018-05-29T02:27:01.915Z,0.00
2018-05-29T02:28:01.899Z,0.00
2018-05-29T02:29:01.889Z,0.00
2018-05-29T02:30:01.885Z,0.00
2018-05-29T02:31:01.924Z,0.00
2018-05-29T02:32:01.861Z,0.00
2018-05-29T02:33:01.847Z,0.00
2018-05-29T02:34:01.837Z,0.00
2018-05-29T02:35:01.821Z,0.00
2018-05-29T02:36:01.811Z,0.00
2018-05-29T02:37:01.797Z,0.00
2018-05-29T02:38:01.785Z,0.00
2018-05-29T02:39:01.789Z,0.00
2018-05-29T02:40:01.762Z,0.00
2018-05-29T02:41:01.755Z,0.00
2018-05-29T02:42:01.737Z,0.00
2018-05-29T02:43:01.732Z,0.00
2018-05-29T02:44:01.717Z,0.00
2018-05-29T02:45:01.717Z,0.00
2018-05-29T02:46:01.699Z,0.00
2018-05-29T02:47:01.823Z,0.00
2018-05-29T02:48:01.700Z,0.00
2018-05-29T02:49:01.661Z,0.00
2018-05-29T02:50:01.650Z,0.00
2018-05-29T02:51:01.636Z,0.00
2018-05-29T02:52:01.629Z,4.00
2018-05-29T02:53:01.613Z,0.00
2018-05-29T02:54:01.602Z,0.00
2018-05-29T02:55:01.593Z,0.00
2018-05-29T02:56:01.582Z,4.00
2018-05-29T02:57:01.566Z,0.00
2018-05-29T02:58:01.558Z,4.00
2018-05-29T02:59:01.551Z,4.00
2018-05-29T03:00:01.631Z,0.00
2018-05-29T03:01:01.522Z,4.00
2018-05-29T03:02:01.510Z,4.00
2018-05-29T03:03:01.499Z,4.00
2018-05-29T03:04:01.485Z,4.00
2018-05-29T03:05:01.482Z,4.00
2018-05-29T03:06:01.462Z,8.00
2018-05-29T03:07:01.451Z,4.00
2018-05-29T03:08:01.488Z,4.00
2018-05-29T03:09:01.430Z,8.00
2018-05-29T03:10:01.421Z,8.00
2018-05-29T03:11:01.408Z,8.00
2018-05-29T03:12:01.393Z,8.00
2018-05-29T03:13:01.383Z,8.00
2018-05-29T03:14:01.374Z,8.00
2018-05-29T03:15:01.359Z,12.00
2018-05-29T03:16:01.354Z,12.00
2018-05-29T03:17:01.339Z,12.00
2018-05-29T03:18:01.323Z,12.00
2018-05-29T03:19:01.311Z,12.00
2018-05-29T03:20:01.303Z,12.00
2018-05-29T03:21:01.381Z,16.00
2018-05-29T03:22:01.288Z,16.00
2018-05-29T03:23:01.264Z,16.00
2018-05-29T03:24:01.326Z,16.00
2018-05-29T03:25:01.240Z,20.00
2018-05-29T03:26:01.231Z,20.00
2018-05-29T03:27:01.224Z,20.00
2018-05-29T03:28:01.209Z,24.00
2018-05-29T03:29:01.195Z,28.00
2018-05-29T03:30:01.189Z,28.00
2018-05-29T03:31:01.178Z,32.00
2018-05-29T03:32:01.163Z,32.00
2018-05-29T03:33:01.147Z,32.00
2018-05-29T03:34:01.142Z,36.00
2018-05-29T03:35:01.127Z,36.00
2018-05-29T03:36:01.121Z,36.00
2018-05-29T03:37:01.104Z,44.00
2018-05-29T03:38:01.095Z,44.00
2018-05-29T03:39:01.076Z,48.00
2018-05-29T03:40:01.066Z,48.00
2018-05-29T03:41:01.057Z,52.00
2018-05-29T03:42:01.043Z,52.00
2018-05-29T03:43:01.095Z,56.00
2018-05-29T03:44:01.021Z,60.00
2018-05-29T03:45:01.014Z,60.00
2018-05-29T03:46:00.993Z,64.00
2018-05-29T03:47:00.988Z,64.00
2018-05-29T03:48:00.971Z,68.00
2018-05-29T03:49:00.963Z,68.00
2018-05-29T03:50:00.950Z,72.00
2018-05-29T03:51:00.942Z,72.00
2018-05-29T03:52:00.930Z,76.00
2018-05-29T03:53:00.912Z,76.00
2018-05-29T03:54:00.902Z,80.00
2018-05-29T03:55:00.890Z,80.00
2018-05-29T03:56:00.879Z,84.00
2018-05-29T03:57:00.868Z,84.00
2018-05-29T03:58:00.853Z,88.00
2018-05-29T03:59:00.844Z,88.00
2018-05-29T04:00:00.832Z,92.00
2018-05-29T04:01:00.828Z,92.00
2018-05-29T04:02:00.808Z,96.00
2018-05-29T04:03:00.798Z,100.00
2018-05-29T04:04:00.882Z,104.00
2018-05-29T04:05:00.771Z,104.00
2018-05-29T04:06:00.758Z,108.00
2018-05-29T04:07:00.752Z,104.00
2018-05-29T04:08:00.735Z,112.00
2018-05-29T04:09:00.726Z,108.00
2018-05-29T04:10:00.775Z,112.00
2018-05-29T04:11:00.703Z,116.00
2018-05-29T04:12:00.687Z,116.00
2018-05-29T04:13:00.687Z,116.00
2018-05-29T04:14:00.663Z,120.00
2018-05-29T04:15:00.652Z,120.00
2018-05-29T04:16:00.642Z,124.00
2018-05-29T04:17:00.653Z,124.00
2018-05-29T04:18:00.618Z,128.00
2018-05-29T04:19:00.607Z,128.00
2018-05-29T04:20:00.671Z,132.00
2018-05-29T04:21:00.581Z,132.00
2018-05-29T04:22:00.572Z,136.00
2018-05-29T04:23:00.563Z,132.00
2018-05-29T04:24:00.549Z,140.00
2018-05-29T04:25:00.534Z,140.00
2018-05-29T04:26:00.530Z,144.00
2018-05-29T04:27:00.513Z,148.00
2018-05-29T04:28:00.499Z,148.00
2018-05-29T04:29:00.491Z,152.00
2018-05-29T04:30:00.482Z,152.00
2018-05-29T04:31:00.464Z,160.00
2018-05-29T04:32:00.465Z,164.00
2018-05-29T04:33:00.440Z,164.00
2018-05-29T04:34:00.429Z,164.00
2018-05-29T04:35:00.422Z,172.00
2018-05-29T04:36:00.411Z,172.00
2018-05-29T04:37:00.398Z,172.00
2018-05-29T04:38:00.386Z,176.00
2018-05-29T04:39:00.397Z,180.00
2018-05-29T04:40:00.361Z,184.00
2018-05-29T04:41:00.347Z,188.00
2018-05-29T04:42:00.338Z,188.00
2018-05-29T04:43:00.324Z,196.00
2018-05-29T04:44:00.415Z,200.00
2018-05-29T04:45:00.300Z,204.00
2018-05-29T04:46:00.290Z,208.00
2018-05-29T04:47:00.317Z,212.00
2018-05-29T04:48:00.267Z,216.00
2018-05-29T04:49:00.263Z,216.00
2018-05-29T04:50:00.244Z,220.00
2018-05-29T04:51:00.231Z,220.00
2018-05-29T04:52:00.220Z,224.00
2018-05-29T04:53:00.210Z,224.00
2018-05-29T04:54:00.198Z,228.00
2018-05-29T04:55:00.195Z,232.00
2018-05-29T04:56:00.175Z,232.00
2018-05-29T04:57:00.164Z,236.00
2018-05-29T04:58:00.152Z,232.00
2018-05-29T04:59:00.140Z,236.00
2018-05-29T05:00:00.131Z,240.00
2018-05-29T05:01:00.118Z,244.00
2018-05-29T05:02:00.111Z,244.00
2018-05-29T05:03:00.197Z,252.00
2018-05-29T05:04:00.079Z,260.00
2018-05-29T05:05:00.069Z,260.00
2018-05-29T05:06:00.061Z,264.00
2018-05-29T05:07:00.049Z,268.00
2018-05-29T05:08:00.038Z,268.00
2018-05-29T05:09:00.038Z,276.00
2018-05-29T05:10:00.011Z,272.00
2018-05-29T05:11:00.010Z,280.00
2018-05-29T05:11:59.994Z,280.00
2018-05-29T05:12:59.976Z,284.00
2018-05-29T05:13:59.969Z,288.00
2018-05-29T05:14:59.952Z,292.00
2018-05-29T05:15:59.946Z,296.00
2018-05-29T05:16:59.939Z,300.00
2018-05-29T05:17:59.921Z,300.00
2018-05-29T05:18:59.945Z,304.00
2018-05-29T05:19:59.903Z,308.00
2018-05-29T05:20:59.892Z,316.00
2018-05-29T05:21:59.875Z,316.00
2018-05-29T05:22:59.858Z,324.00
2018-05-29T05:23:59.854Z,324.00
2018-05-29T05:24:59.848Z,328.00
2018-05-29T05:25:59.829Z,332.00
2018-05-29T05:26:59.815Z,336.00
2018-05-29T05:27:59.806Z,340.00
2018-05-29T05:28:59.792Z,344.00
2018-05-29T05:29:59.786Z,344.00
2018-05-29T05:30:59.770Z,344.00
2018-05-29T05:31:59.762Z,352.00
2018-05-29T05:32:59.747Z,352.00
2018-05-29T05:33:59.742Z,352.00
2018-05-29T05:34:59.724Z,356.00
2018-05-29T05:35:59.715Z,356.00
2018-05-29T05:36:59.703Z,360.00
2018-05-29T05:37:59.692Z,360.00
2018-05-29T05:38:59.678Z,360.00
2018-05-29T05:39:59.766Z,364.00
2018-05-29T05:40:59.656Z,368.00
2018-05-29T05:41:59.643Z,368.00
2018-05-29T05:42:59.643Z,372.00
2018-05-29T05:43:59.625Z,376.00
2018-05-29T05:44:59.612Z,380.00
2018-05-29T05:45:59.606Z,380.00
2018-05-29T05:46:59.602Z,384.00
2018-05-29T05:47:59.575Z,388.00
2018-05-29T05:48:59.564Z,396.00
2018-05-29T05:49:59.552Z,396.00
2018-05-29T05:50:59.547Z,400.00
2018-05-29T05:51:59.543Z,400.00
2018-05-29T05:52:59.517Z,408.00
2018-05-29T05:53:59.512Z,408.00
2018-05-29T05:54:59.495Z,412.00
2018-05-29T05:55:59.490Z,412.00
2018-05-29T05:56:59.471Z,416.00
2018-05-29T05:57:59.465Z,420.00
2018-05-29T05:58:59.513Z,424.00
2018-05-29T05:59:59.445Z,428.00
2018-05-29T06:00:59.423Z,432.00
2018-05-29T06:01:59.417Z,436.00
2018-05-29T06:02:59.405Z,444.00
2018-05-29T06:03:59.397Z,444.00
2018-05-29T06:04:59.380Z,448.00
2018-05-29T06:05:59.369Z,452.00
2018-05-29T06:06:59.363Z,452.00
2018-05-29T06:07:59.345Z,460.00
2018-05-29T06:08:59.333Z,460.00
2018-05-29T06:09:59.335Z,468.00
2018-05-29T06:10:59.310Z,472.00
2018-05-29T06:11:59.301Z,472.00
2018-05-29T06:12:59.289Z,480.00
2018-05-29T06:13:59.278Z,480.00
2018-05-29T06:14:59.272Z,484.00
2018-05-29T06:15:59.322Z,488.00
2018-05-29T06:16:59.249Z,496.00
2018-05-29T06:17:59.232Z,496.00
2018-05-29T06:18:59.222Z,500.00
2018-05-29T06:19:59.218Z,504.00
2018-05-29T06:20:59.202Z,508.00
2018-05-29T06:21:59.189Z,512.00
2018-05-29T06:22:59.181Z,520.00
2018-05-29T06:23:59.168Z,524.00
2018-05-29T06:24:59.156Z,532.00
2018-05-29T06:25:59.145Z,532.00
2018-05-29T06:26:59.139Z,536.00
2018-05-29T06:27:59.122Z,544.00
2018-05-29T06:28:59.113Z,548.00
2018-05-29T06:29:59.101Z,552.00
2018-05-29T06:30:59.091Z,556.00
2018-05-29T06:31:59.077Z,560.00
2018-05-29T06:32:59.069Z,568.00
2018-05-29T06:33:59.055Z,576.00
2018-05-29T06:34:59.040Z,576.00
2018-05-29T06:35:59.037Z,584.00
2018-05-29T06:36:59.018Z,592.00
2018-05-29T06:37:59.010Z,596.00
2018-05-29T06:38:59.098Z,608.00
2018-05-29T06:39:58.987Z,616.00
2018-05-29T06:40:58.974Z,620.00
2018-05-29T06:41:58.966Z,628.00
2018-05-29T06:42:58.957Z,632.00
2018-05-29T06:43:58.943Z,640.00
2018-05-29T06:44:58.989Z,644.00
2018-05-29T06:45:58.920Z,656.00
2018-05-29T06:46:58.909Z,656.00
2018-05-29T06:47:58.901Z,664.00
2018-05-29T06:48:58.885Z,668.00
2018-05-29T06:49:58.878Z,676.00
2018-05-29T06:50:58.866Z,688.00
2018-05-29T06:51:58.850Z,692.00
2018-05-29T06:52:58.845Z,700.00
2018-05-29T06:53:58.840Z,708.00
2018-05-29T06:54:58.920Z,712.00
2018-05-29T06:55:58.810Z,724.00
2018-05-29T06:56:58.800Z,728.00
2018-05-29T06:57:58.790Z,740.00
2018-05-29T06:58:58.781Z,752.00
2018-05-29T06:59:58.770Z,760.00
2018-05-29T07:00:58.761Z,768.00
2018-05-29T07:01:58.746Z,772.00
2018-05-29T07:02:58.735Z,780.00
2018-05-29T07:03:58.728Z,792.00
2018-05-29T07:04:58.716Z,800.00
2018-05-29T07:05:58.703Z,812.00
2018-05-29T07:06:58.735Z,820.00
2018-05-29T07:07:58.680Z,828.00
2018-05-29T07:08:58.680Z,840.00
2018-05-29T07:09:58.659Z,848.00
2018-05-29T07:10:58.649Z,860.00
2018-05-29T07:11:58.641Z,868.00
2018-05-29T07:12:58.639Z,880.00
2018-05-29T07:13:58.618Z,896.00
2018-05-29T07:14:58.613Z,912.00
2018-05-29T07:15:58.738Z,928.00
2018-05-29T07:16:58.591Z,940.00
2018-05-29T07:17:58.580Z,960.00
2018-05-29T07:18:58.715Z,968.00
2018-05-29T07:19:58.585Z,984.00
2018-05-29T07:20:58.547Z,1000.00
2018-05-29T07:21:58.539Z,1020.00
2018-05-29T07:22:58.530Z,1040.00
2018-05-29T07:23:58.511Z,1056.00
2018-05-29T07:24:58.501Z,1076.00
2018-05-29T07:25:58.491Z,1096.00
2018-05-29T07:26:58.480Z,1124.00
2018-05-29T07:27:58.477Z,1152.00
2018-05-29T07:28:58.460Z,1180.00
2018-05-29T07:29:58.461Z,1180.00
2018-05-29T07:30:58.438Z,1212.00
2018-05-29T07:31:58.431Z,1252.00
2018-05-29T07:32:58.419Z,1292.00
2018-05-29T07:33:58.405Z,1324.00
2018-05-29T07:34:58.398Z,1348.00
2018-05-29T07:35:58.388Z,1368.00
2018-05-29T07:36:58.384Z,1396.00
2018-05-29T07:37:58.368Z,1416.00
2018-05-29T07:38:58.396Z,1448.00
2018-05-29T07:39:58.354Z,1472.00
2018-05-29T07:40:58.335Z,1500.00
2018-05-29T07:41:58.322Z,1528.00
2018-05-29T07:42:58.320Z,1548.00
2018-05-29T07:43:58.304Z,1572.00
2018-05-29T07:44:58.290Z,1596.00
2018-05-29T07:45:58.287Z,1620.00
2018-05-29T07:46:58.277Z,1644.00
2018-05-29T07:47:58.265Z,1668.00
2018-05-29T07:48:58.255Z,1688.00
2018-05-29T07:49:58.240Z,1716.00
2018-05-29T07:50:58.288Z,1740.00
2018-05-29T07:51:58.250Z,1768.00
2018-05-29T07:52:58.210Z,1792.00
2018-05-29T07:53:58.207Z,1820.00
2018-05-29T07:54:58.188Z,1832.00
2018-05-29T07:55:58.183Z,1848.00
2018-05-29T07:56:58.174Z,1872.00
2018-05-29T07:57:58.162Z,1896.00
2018-05-29T07:58:58.154Z,1916.00
2018-05-29T07:59:58.139Z,1928.00
2018-05-29T08:00:58.133Z,1956.00
2018-05-29T08:01:58.126Z,1980.00
2018-05-29T08:02:58.112Z,1988.00
2018-05-29T08:03:58.103Z,2004.00
2018-05-29T08:04:58.095Z,2024.00
2018-05-29T08:05:58.090Z,2028.00
2018-05-29T08:06:58.073Z,2040.00
2018-05-29T08:07:58.107Z,2048.00
2018-05-29T08:08:58.179Z,2060.00
2018-05-29T08:09:58.045Z,2072.00
2018-05-29T08:10:58.044Z,2080.00
2018-05-29T08:11:58.124Z,2096.00
2018-05-29T08:12:58.018Z,2100.00
2018-05-29T08:13:58.011Z,2104.00
2018-05-29T08:14:57.993Z,2128.00
2018-05-29T08:15:57.987Z,2140.00
2018-05-29T08:16:57.976Z,2144.00
2018-05-29T08:17:57.975Z,2136.00
2018-05-29T08:18:57.962Z,2144.00
2018-05-29T08:19:57.952Z,2140.00
2018-05-29T08:20:57.940Z,2156.00
2018-05-29T08:21:57.930Z,2176.00
2018-05-29T08:22:57.924Z,2172.00
2018-05-29T08:23:57.912Z,2184.00
2018-05-29T08:24:57.927Z,2180.00
2018-05-29T08:25:57.892Z,2192.00
2018-05-29T08:26:57.886Z,2224.00
2018-05-29T08:27:57.937Z,2224.00
2018-05-29T08:28:57.869Z,2224.00
2018-05-29T08:29:57.866Z,2232.00
2018-05-29T08:30:57.865Z,2220.00
2018-05-29T08:31:57.837Z,2220.00
2018-05-29T08:32:57.829Z,2220.00
2018-05-29T08:33:57.824Z,2236.00
2018-05-29T08:34:57.820Z,2212.00
2018-05-29T08:35:57.800Z,2216.00
2018-05-29T08:36:57.792Z,2236.00
2018-05-29T08:37:57.786Z,2260.00
2018-05-29T08:38:57.779Z,2280.00
2018-05-29T08:39:57.764Z,2276.00
2018-05-29T08:40:57.901Z,2284.00
2018-05-29T08:41:57.760Z,2276.00
2018-05-29T08:42:57.741Z,2276.00
2018-05-29T08:43:57.836Z,2288.00
2018-05-29T08:44:57.719Z,2292.00
2018-05-29T08:45:57.711Z,2296.00
2018-05-29T08:46:57.701Z,2296.00
2018-05-29T08:47:57.693Z,2340.00
2018-05-29T08:48:57.686Z,2328.00
2018-05-29T08:49:57.678Z,2336.00
2018-05-29T08:50:57.665Z,2316.00
2018-05-29T08:51:57.651Z,2328.00
2018-05-29T08:52:57.644Z,2356.00
2018-05-29T08:53:57.639Z,2376.00
2018-05-29T08:54:57.627Z,2372.00
2018-05-29T08:55:57.617Z,2380.00
2018-05-29T08:56:57.654Z,2392.00
2018-05-29T08:57:57.604Z,2400.00
2018-05-29T08:58:57.594Z,2392.00
2018-05-29T08:59:57.583Z,2380.00
2018-05-29T09:00:57.573Z,2408.00
2018-05-29T09:01:57.567Z,2416.00
2018-05-29T09:02:57.559Z,2428.00
2018-05-29T09:03:57.580Z,2436.00
2018-05-29T09:04:57.617Z,2444.00
2018-05-29T09:05:57.530Z,2424.00
2018-05-29T09:06:57.524Z,2444.00
2018-05-29T09:07:57.563Z,2424.00
2018-05-29T09:08:57.506Z,2428.00
2018-05-29T09:09:57.494Z,2412.00
2018-05-29T09:10:57.500Z,2436.00
2018-05-29T09:11:57.514Z,2432.00
2018-05-29T09:12:57.468Z,2460.00
2018-05-29T09:13:57.464Z,2448.00
2018-05-29T09:14:57.454Z,2460.00
2018-05-29T09:15:57.452Z,2452.00
2018-05-29T09:16:57.434Z,2480.00
2018-05-29T09:17:57.440Z,2476.00
2018-05-29T09:18:57.418Z,2480.00
2018-05-29T09:19:57.430Z,2496.00
2018-05-29T09:20:57.449Z,2500.00
2018-05-29T09:21:57.392Z,2520.00
2018-05-29T09:22:57.382Z,2516.00
2018-05-29T09:23:57.375Z,2496.00
2018-05-29T09:24:57.372Z,2504.00
2018-05-29T09:25:57.386Z,2540.00
2018-05-29T09:26:57.361Z,2516.00
2018-05-29T09:27:57.341Z,2540.00
2018-05-29T09:28:57.343Z,2536.00
2018-05-29T09:29:57.405Z,2524.00
2018-05-29T09:30:57.315Z,2532.00
2018-05-29T09:31:57.370Z,2524.00
2018-05-29T09:32:57.299Z,2524.00
2018-05-29T09:33:57.293Z,2528.00
2018-05-29T09:34:57.280Z,2548.00
2018-05-29T09:35:57.272Z,2572.00
2018-05-29T09:36:57.266Z,2556.00
2018-05-29T09:37:57.259Z,2564.00
2018-05-29T09:38:57.251Z,2548.00
2018-05-29T09:39:57.241Z,2464.00
2018-05-29T09:40:57.232Z,2488.00
2018-05-29T09:41:57.222Z,2536.00
2018-05-29T09:42:57.224Z,2556.00
2018-05-29T09:43:57.207Z,2556.00
2018-05-29T09:44:57.205Z,2584.00
2018-05-29T09:45:57.211Z,2568.00
2018-05-29T09:46:57.180Z,2512.00
2018-05-29T09:47:57.181Z,2552.00
2018-05-29T09:48:57.165Z,2552.00
2018-05-29T09:49:57.162Z,2548.00
2018-05-29T09:50:57.150Z,2524.00
2018-05-29T09:51:57.140Z,2552.00
2018-05-29T09:52:57.162Z,2580.00
2018-05-29T09:53:57.126Z,2584.00
2018-05-29T09:54:57.119Z,2580.00
2018-05-29T09:55:57.107Z,2560.00
2018-05-29T09:56:57.099Z,2532.00
2018-05-29T09:57:57.147Z,2516.00
2018-05-29T09:58:57.088Z,2568.00
2018-05-29T09:59:57.076Z,2584.00
2018-05-29T10:00:57.072Z,2604.00
2018-05-29T10:01:57.065Z,2600.00
2018-05-29T10:02:57.052Z,2580.00
2018-05-29T10:03:57.040Z,2560.00
2018-05-29T10:04:57.036Z,2564.00
2018-05-29T10:05:57.027Z,2540.00
2018-05-29T10:06:57.127Z,2556.00
2018-05-29T10:07:57.007Z,2560.00
2018-05-29T10:08:57.000Z,2528.00
2018-05-29T10:09:56.990Z,2544.00
2018-05-29T10:10:56.987Z,2488.00
2018-05-29T10:11:56.976Z,2556.00
2018-05-29T10:12:56.971Z,2520.00
2018-05-29T10:13:56.959Z,2604.00
2018-05-29T10:14:56.950Z,2556.00
2018-05-29T10:15:56.950Z,2464.00
2018-05-29T10:16:56.946Z,2564.00
2018-05-29T10:17:56.927Z,2612.00
2018-05-29T10:18:56.930Z,2640.00
2018-05-29T10:19:56.907Z,2544.00
2018-05-29T10:20:56.901Z,2588.00
2018-05-29T10:21:56.894Z,2600.00
2018-05-29T10:22:56.886Z,2520.00
2018-05-29T10:23:56.888Z,2552.00
2018-05-29T10:24:56.869Z,2584.00
2018-05-29T10:25:56.862Z,2564.00
2018-05-29T10:26:56.857Z,2580.00
2018-05-29T10:27:56.847Z,2564.00
2018-05-29T10:28:56.855Z,2560.00
2018-05-29T10:29:56.840Z,2584.00
2018-05-29T10:30:56.884Z,2652.00
2018-05-29T10:31:56.816Z,2632.00
2018-05-29T10:32:56.816Z,2568.00
2018-05-29T10:33:56.800Z,2580.00
2018-05-29T10:34:56.794Z,2580.00
2018-05-29T10:35:56.784Z,2632.00
2018-05-29T10:36:56.782Z,2708.00
2018-05-29T10:37:56.780Z,2660.00
2018-05-29T10:38:56.763Z,2716.00
2018-05-29T10:39:56.758Z,2680.00
2018-05-29T10:40:56.746Z,2660.00
2018-05-29T10:41:56.737Z,2644.00
2018-05-29T10:42:56.730Z,2548.00
2018-05-29T10:43:56.722Z,2564.00
2018-05-29T10:44:56.736Z,2616.00
2018-05-29T10:45:56.709Z,2372.00
2018-05-29T10:46:56.697Z,2540.00
2018-05-29T10:47:56.692Z,2556.00
2018-05-29T10:48:56.684Z,2572.00
2018-05-29T10:49:56.675Z,2616.00
2018-05-29T10:50:56.669Z,2596.00
2018-05-29T10:51:56.659Z,2600.00
2018-05-29T10:52:56.650Z,2628.00
2018-05-29T10:53:56.645Z,2628.00
2018-05-29T10:54:56.634Z,2612.00
2018-05-29T10:55:56.625Z,2612.00
2018-05-29T10:56:56.623Z,2612.00
2018-05-29T10:57:56.621Z,2680.00
2018-05-29T10:58:56.606Z,2732.00
2018-05-29T10:59:56.611Z,2684.00
2018-05-29T11:00:56.593Z,2660.00
2018-05-29T11:01:56.579Z,2692.00
2018-05-29T11:02:56.586Z,2704.00
2018-05-29T11:03:56.566Z,2700.00
2018-05-29T11:04:56.561Z,2688.00
2018-05-29T11:05:56.553Z,2664.00
2018-05-29T11:06:56.580Z,2656.00
2018-05-29T11:07:56.534Z,2700.00
2018-05-29T11:08:56.529Z,2680.00
2018-05-29T11:09:56.522Z,2716.00
2018-05-29T11:10:56.519Z,2704.00
2018-05-29T11:11:56.508Z,2728.00
2018-05-29T11:12:56.497Z,2704.00
2018-05-29T11:13:56.599Z,2680.00
2018-05-29T11:14:56.485Z,2724.00
2018-05-29T11:15:56.485Z,2724.00
2018-05-29T11:16:56.468Z,2700.00
2018-05-29T11:17:56.461Z,2668.00
2018-05-29T11:18:56.458Z,2672.00
2018-05-29T11:19:56.445Z,2680.00
2018-05-29T11:20:56.439Z,1396.00
2018-05-29T11:21:56.434Z,2584.00
2018-05-29T11:22:56.426Z,2776.00
2018-05-29T11:23:56.419Z,2816.00
2018-05-29T11:24:56.407Z,2852.00
2018-05-29T11:25:56.400Z,2908.00
2018-05-29T11:26:56.542Z,2916.00
2018-05-29T11:27:56.393Z,2856.00
2018-05-29T11:28:56.391Z,2848.00
2018-05-29T11:29:56.402Z,2752.00
2018-05-29T11:30:56.368Z,2856.00
2018-05-29T11:31:56.363Z,2840.00
2018-05-29T11:32:56.352Z,2816.00
2018-05-29T11:33:56.340Z,2844.00
2018-05-29T11:34:56.344Z,2772.00
2018-05-29T11:35:56.328Z,2656.00
2018-05-29T11:36:56.320Z,2680.00
2018-05-29T11:37:56.321Z,2856.00
2018-05-29T11:38:56.305Z,2884.00
2018-05-29T11:39:56.304Z,2844.00
2018-05-29T11:40:56.290Z,2860.00
2018-05-29T11:41:56.288Z,2876.00
2018-05-29T11:42:56.280Z,3020.00
2018-05-29T11:43:56.280Z,2928.00
2018-05-29T11:44:56.265Z,2800.00
2018-05-29T11:45:56.262Z,1976.00
2018-05-29T11:46:56.250Z,2784.00
2018-05-29T11:47:56.242Z,2800.00
2018-05-29T11:48:56.233Z,2756.00
2018-05-29T11:49:56.230Z,2796.00
2018-05-29T11:50:56.275Z,2920.00
2018-05-29T11:51:56.211Z,2932.00
2018-05-29T11:52:56.214Z,2908.00
2018-05-29T11:53:56.202Z,2944.00
2018-05-29T11:54:56.223Z,816.00
2018-05-29T11:55:56.207Z,824.00
2018-05-29T11:56:56.193Z,816.00
2018-05-29T11:57:56.171Z,824.00
2018-05-29T11:58:56.168Z,1948.00
2018-05-29T11:59:56.162Z,1316.00
2018-05-29T12:00:56.269Z,804.00
2018-05-29T12:01:56.145Z,872.00
2018-05-29T12:02:56.136Z,2800.00
2018-05-29T12:03:56.128Z,2820.00
2018-05-29T12:04:56.120Z,3020.00
2018-05-29T12:05:56.116Z,2744.00
2018-05-29T12:06:56.109Z,2104.00
2018-05-29T12:07:56.102Z,3004.00
2018-05-29T12:08:56.090Z,3048.00
2018-05-29T12:09:56.087Z,3064.00
2018-05-29T12:10:56.181Z,3152.00
2018-05-29T12:11:56.070Z,3160.00
2018-05-29T12:12:56.062Z,3224.00
2018-05-29T12:13:56.055Z,3200.00
2018-05-29T12:14:56.046Z,3212.00
2018-05-29T12:15:56.053Z,3160.00
2018-05-29T12:16:56.095Z,3164.00
2018-05-29T12:17:56.036Z,3160.00
2018-05-29T12:18:56.018Z,3048.00
2018-05-29T12:19:56.012Z,2884.00
2018-05-29T12:20:56.008Z,2564.00
2018-05-29T12:21:55.996Z,2632.00
2018-05-29T12:22:55.995Z,2148.00
2018-05-29T12:23:55.981Z,3000.00
2018-05-29T12:24:55.994Z,2924.00
2018-05-29T12:25:55.975Z,3020.00
2018-05-29T12:26:55.967Z,3032.00
2018-05-29T12:27:55.952Z,3060.00
2018-05-29T12:28:55.959Z,2992.00
2018-05-29T12:29:55.950Z,3080.00
2018-05-29T12:30:55.945Z,3184.00
2018-05-29T12:31:55.928Z,1576.00